sensor_id;sensor_type;location;lat;lon;timestamp;temperature;humidity
29003;DHT22;16102;57.138;-2.118;2023-01-13T00:01:19;7.70;99.90
29003;DHT22;16102;57.138;-2.118;2023-01-13T00:03:46;7.60;99.90
29003;DHT22;16102;57.138;-2.118;2023-01-13T00:06:19;7.50;99.90
29003;DHT22;16102;57.138;-2.118;2023-01-13T00:08:50;7.40;99.90
29003;DHT22;16102;57.138;-2.118;2023-01-13T00:11:18;7.40;99.90
29003;DHT22;16102;57.138;-2.118;2023-01-13T00:13:47;7.30;99.90
29003;DHT22;16102;57.138;-2.118;2023-01-13T00:16:16;7.30;99.90
29003;DHT22;16102;57.138;-2.118;2023-01-13T00:18:44;7.20;99.90
29003;DHT22;16102;57.138;-2.118;2023-01-13T00:21:20;7.10;99.90
29003;DHT22;16102;57.138;-2.118;2023-01-13T00:23:49;7.00;99.90
29003;DHT22;16102;57.138;-2.118;2023-01-13T00:26:18;6.90;99.90
29003;DHT22;16102;57.138;-2.118;2023-01-13T00:28:46;6.90;99.90
29003;DHT22;16102;57.138;-2.118;2023-01-13T00:31:15;6.80;99.90
29003;DHT22;16102;57.138;-2.118;2023-01-13T00:33:43;6.70;99.90
29003;DHT22;16102;57.138;-2.118;2023-01-13T00:36:12;6.70;99.90
29003;DHT22;16102;57.138;-2.118;2023-01-13T00:38:40;6.60;99.90
29003;DHT22;16102;57.138;-2.118;2023-01-13T00:41:13;6.60;99.90
29003;DHT22;16102;57.138;-2.118;2023-01-13T00:43:41;6.60;99.90
29003;DHT22;16102;57.138;-2.118;2023-01-13T00:46:11;6.50;99.90
29003;DHT22;16102;57.138;-2.118;2023-01-13T00:48:39;6.50;99.90
29003;DHT22;16102;57.138;-2.118;2023-01-13T00:51:11;6.50;99.90
29003;DHT22;16102;57.138;-2.118;2023-01-13T00:53:40;6.50;99.90
29003;DHT22;16102;57.138;-2.118;2023-01-13T00:56:15;6.40;99.90
29003;DHT22;16102;57.138;-2.118;2023-01-13T00:58:44;6.40;99.90
29003;DHT22;16102;57.138;-2.118;2023-01-13T01:01:20;6.50;99.90
29003;DHT22;16102;57.138;-2.118;2023-01-13T01:03:48;6.40;99.90
29003;DHT22;16102;57.138;-2.118;2023-01-13T01:06:18;6.40;99.90
29003;DHT22;16102;57.138;-2.118;2023-01-13T01:08:45;6.40;99.90
29003;DHT22;16102;57.138;-2.118;2023-01-13T01:11:16;6.40;99.90
29003;DHT22;16102;57.138;-2.118;2023-01-13T01:13:44;6.40;99.90
29003;DHT22;16102;57.138;-2.118;2023-01-13T01:16:13;6.50;99.90
29003;DHT22;16102;57.138;-2.118;2023-01-13T01:18:43;6.50;99.90
29003;DHT22;16102;57.138;-2.118;2023-01-13T01:21:11;6.50;99.90
29003;DHT22;16102;57.138;-2.118;2023-01-13T01:23:39;6.50;99.90
29003;DHT22;16102;57.138;-2.118;2023-01-13T01:26:18;6.50;99.90
29003;DHT22;16102;57.138;-2.118;2023-01-13T01:28:46;6.60;99.90
29003;DHT22;16102;57.138;-2.118;2023-01-13T01:31:19;6.50;99.90
29003;DHT22;16102;57.138;-2.118;2023-01-13T01:33:47;6.60;99.90
29003;DHT22;16102;57.138;-2.118;2023-01-13T01:36:16;6.60;99.90
29003;DHT22;16102;57.138;-2.118;2023-01-13T01:38:45;6.60;99.90
29003;DHT22;16102;57.138;-2.118;2023-01-13T01:41:22;6.60;99.90
29003;DHT22;16102;57.138;-2.118;2023-01-13T01:47:09;6.70;99.90
29003;DHT22;16102;57.138;-2.118;2023-01-13T01:49:38;6.60;99.90
29003;DHT22;16102;57.138;-2.118;2023-01-13T01:52:24;6.70;99.90
29003;DHT22;16102;57.138;-2.118;2023-01-13T01:57:55;6.70;99.90
29003;DHT22;16102;57.138;-2.118;2023-01-13T02:00:24;6.70;99.90
29003;DHT22;16102;57.138;-2.118;2023-01-13T02:02:53;6.70;99.90
29003;DHT22;16102;57.138;-2.118;2023-01-13T02:05:20;6.80;99.90
29003;DHT22;16102;57.138;-2.118;2023-01-13T02:07:50;6.80;99.90
29003;DHT22;16102;57.138;-2.118;2023-01-13T02:10:21;6.80;99.90
29003;DHT22;16102;57.138;-2.118;2023-01-13T02:12:49;6.80;99.90
29003;DHT22;16102;57.138;-2.118;2023-01-13T02:15:21;6.80;99.90
29003;DHT22;16102;57.138;-2.118;2023-01-13T02:26:12;7.00;99.90
29003;DHT22;16102;57.138;-2.118;2023-01-13T02:31:34;7.00;99.90
29003;DHT22;16102;57.138;-2.118;2023-01-13T02:34:41;7.00;99.90
29003;DHT22;16102;57.138;-2.118;2023-01-13T02:37:13;7.10;99.90
29003;DHT22;16102;57.138;-2.118;2023-01-13T02:40:02;7.10;99.90
29003;DHT22;16102;57.138;-2.118;2023-01-13T02:42:33;7.20;99.90
29003;DHT22;16102;57.138;-2.118;2023-01-13T02:45:24;7.20;99.90
29003;DHT22;16102;57.138;-2.118;2023-01-13T02:47:54;7.20;99.90
29003;DHT22;16102;57.138;-2.118;2023-01-13T02:50:28;7.20;99.90
29003;DHT22;16102;57.138;-2.118;2023-01-13T02:53:04;7.20;99.90
29003;DHT22;16102;57.138;-2.118;2023-01-13T02:55:37;7.20;99.90
29003;DHT22;16102;57.138;-2.118;2023-01-13T02:58:07;7.30;99.90
29003;DHT22;16102;57.138;-2.118;2023-01-13T03:00:36;7.20;99.90
29003;DHT22;16102;57.138;-2.118;2023-01-13T03:03:03;7.20;99.90
29003;DHT22;16102;57.138;-2.118;2023-01-13T03:05:31;7.10;99.90
29003;DHT22;16102;57.138;-2.118;2023-01-13T03:08:40;7.00;99.90
29003;DHT22;16102;57.138;-2.118;2023-01-13T03:11:11;7.00;99.90
29003;DHT22;16102;57.138;-2.118;2023-01-13T03:14:51;6.90;99.90
29003;DHT22;16102;57.138;-2.118;2023-01-13T03:17:04;6.90;99.90
29003;DHT22;16102;57.138;-2.118;2023-01-13T03:19:53;6.90;99.90
29003;DHT22;16102;57.138;-2.118;2023-01-13T03:23:04;6.90;99.90
29003;DHT22;16102;57.138;-2.118;2023-01-13T03:25:28;6.90;99.90
29003;DHT22;16102;57.138;-2.118;2023-01-13T03:28:02;6.80;99.90
29003;DHT22;16102;57.138;-2.118;2023-01-13T03:30:44;6.80;99.90
29003;DHT22;16102;57.138;-2.118;2023-01-13T03:33:32;6.80;99.90
29003;DHT22;16102;57.138;-2.118;2023-01-13T03:36:08;6.80;99.90
29003;DHT22;16102;57.138;-2.118;2023-01-13T03:38:46;6.80;99.90
29003;DHT22;16102;57.138;-2.118;2023-01-13T03:41:26;6.80;99.90
29003;DHT22;16102;57.138;-2.118;2023-01-13T03:44:14;6.80;99.90
29003;DHT22;16102;57.138;-2.118;2023-01-13T03:52:15;6.80;99.90
29003;DHT22;16102;57.138;-2.118;2023-01-13T03:54:50;6.90;99.90
29003;DHT22;16102;57.138;-2.118;2023-01-13T03:57:21;6.80;99.90
29003;DHT22;16102;57.138;-2.118;2023-01-13T03:59:53;6.90;99.90
29003;DHT22;16102;57.138;-2.118;2023-01-13T04:05:01;6.90;99.90
29003;DHT22;16102;57.138;-2.118;2023-01-13T04:11:02;6.90;99.90
29003;DHT22;16102;57.138;-2.118;2023-01-13T04:13:12;6.80;99.90
29003;DHT22;16102;57.138;-2.118;2023-01-13T04:15:43;6.80;99.90
29003;DHT22;16102;57.138;-2.118;2023-01-13T04:20:44;6.80;99.90
29003;DHT22;16102;57.138;-2.118;2023-01-13T04:23:11;6.70;99.90
29003;DHT22;16102;57.138;-2.118;2023-01-13T04:25:40;6.70;99.90
29003;DHT22;16102;57.138;-2.118;2023-01-13T04:28:08;6.70;99.90
29003;DHT22;16102;57.138;-2.118;2023-01-13T04:30:36;6.80;99.90
29003;DHT22;16102;57.138;-2.118;2023-01-13T04:33:03;6.70;99.90
29003;DHT22;16102;57.138;-2.118;2023-01-13T04:35:31;6.70;99.90
29003;DHT22;16102;57.138;-2.118;2023-01-13T04:38:00;6.70;99.90
29003;DHT22;16102;57.138;-2.118;2023-01-13T04:40:28;6.80;99.90
29003;DHT22;16102;57.138;-2.118;2023-01-13T04:42:55;6.80;99.90
29003;DHT22;16102;57.138;-2.118;2023-01-13T04:45:22;6.80;99.90
29003;DHT22;16102;57.138;-2.118;2023-01-13T04:47:49;6.80;99.90
29003;DHT22;16102;57.138;-2.118;2023-01-13T04:50:17;6.70;99.90
29003;DHT22;16102;57.138;-2.118;2023-01-13T04:52:49;6.70;99.90
29003;DHT22;16102;57.138;-2.118;2023-01-13T04:55:17;6.70;99.90
29003;DHT22;16102;57.138;-2.118;2023-01-13T04:57:44;6.80;99.90
29003;DHT22;16102;57.138;-2.118;2023-01-13T05:00:14;6.70;99.90
29003;DHT22;16102;57.138;-2.118;2023-01-13T05:02:41;6.80;99.90
29003;DHT22;16102;57.138;-2.118;2023-01-13T05:05:09;6.70;99.90
29003;DHT22;16102;57.138;-2.118;2023-01-13T05:07:36;6.70;99.90
29003;DHT22;16102;57.138;-2.118;2023-01-13T05:10:03;6.70;99.90
29003;DHT22;16102;57.138;-2.118;2023-01-13T05:12:31;6.70;99.90
29003;DHT22;16102;57.138;-2.118;2023-01-13T05:15:17;6.70;99.90
29003;DHT22;16102;57.138;-2.118;2023-01-13T05:18:03;6.70;99.90
29003;DHT22;16102;57.138;-2.118;2023-01-13T05:20:31;6.70;99.90
29003;DHT22;16102;57.138;-2.118;2023-01-13T05:22:58;6.70;99.90
29003;DHT22;16102;57.138;-2.118;2023-01-13T05:25:43;6.70;99.90
29003;DHT22;16102;57.138;-2.118;2023-01-13T05:28:12;6.80;99.90
29003;DHT22;16102;57.138;-2.118;2023-01-13T05:30:42;6.80;99.90
29003;DHT22;16102;57.138;-2.118;2023-01-13T05:33:14;6.80;99.90
29003;DHT22;16102;57.138;-2.118;2023-01-13T05:35:43;6.90;99.90
29003;DHT22;16102;57.138;-2.118;2023-01-13T05:38:12;6.90;99.90
29003;DHT22;16102;57.138;-2.118;2023-01-13T05:40:39;7.00;99.90
29003;DHT22;16102;57.138;-2.118;2023-01-13T05:43:25;7.10;99.90
29003;DHT22;16102;57.138;-2.118;2023-01-13T05:46:04;7.10;99.90
29003;DHT22;16102;57.138;-2.118;2023-01-13T05:48:38;7.20;99.90
29003;DHT22;16102;57.138;-2.118;2023-01-13T05:51:08;7.20;99.90
29003;DHT22;16102;57.138;-2.118;2023-01-13T05:53:35;7.30;99.90
29003;DHT22;16102;57.138;-2.118;2023-01-13T05:56:03;7.40;99.90
29003;DHT22;16102;57.138;-2.118;2023-01-13T05:58:31;7.40;99.90
29003;DHT22;16102;57.138;-2.118;2023-01-13T06:01:03;7.50;99.90
29003;DHT22;16102;57.138;-2.118;2023-01-13T06:03:32;7.50;99.90
29003;DHT22;16102;57.138;-2.118;2023-01-13T06:05:59;7.60;99.90
29003;DHT22;16102;57.138;-2.118;2023-01-13T06:08:28;7.60;99.90
29003;DHT22;16102;57.138;-2.118;2023-01-13T06:10:55;7.70;99.90
29003;DHT22;16102;57.138;-2.118;2023-01-13T06:13:23;7.80;99.90
29003;DHT22;16102;57.138;-2.118;2023-01-13T06:15:54;7.80;99.90
29003;DHT22;16102;57.138;-2.118;2023-01-13T06:18:22;7.80;99.90
29003;DHT22;16102;57.138;-2.118;2023-01-13T06:20:49;7.80;99.90
29003;DHT22;16102;57.138;-2.118;2023-01-13T06:23:16;7.80;99.90
29003;DHT22;16102;57.138;-2.118;2023-01-13T06:25:49;7.80;99.90
29003;DHT22;16102;57.138;-2.118;2023-01-13T06:28:17;7.70;99.90
29003;DHT22;16102;57.138;-2.118;2023-01-13T06:30:49;7.80;99.90
29003;DHT22;16102;57.138;-2.118;2023-01-13T06:33:23;7.80;99.90
29003;DHT22;16102;57.138;-2.118;2023-01-13T06:35:56;7.80;99.90
29003;DHT22;16102;57.138;-2.118;2023-01-13T06:38:26;7.80;99.90
29003;DHT22;16102;57.138;-2.118;2023-01-13T06:40:53;7.80;99.90
29003;DHT22;16102;57.138;-2.118;2023-01-13T06:43:21;7.70;99.90
29003;DHT22;16102;57.138;-2.118;2023-01-13T06:45:51;7.70;99.90
29003;DHT22;16102;57.138;-2.118;2023-01-13T06:48:24;7.70;99.90
29003;DHT22;16102;57.138;-2.118;2023-01-13T06:50:53;7.70;99.90
29003;DHT22;16102;57.138;-2.118;2023-01-13T06:53:21;7.70;99.90
29003;DHT22;16102;57.138;-2.118;2023-01-13T06:55:48;7.70;99.90
29003;DHT22;16102;57.138;-2.118;2023-01-13T06:58:15;7.60;99.90
29003;DHT22;16102;57.138;-2.118;2023-01-13T07:00:42;7.50;99.90
29003;DHT22;16102;57.138;-2.118;2023-01-13T07:03:11;7.60;99.90
29003;DHT22;16102;57.138;-2.118;2023-01-13T07:05:41;7.50;99.90
29003;DHT22;16102;57.138;-2.118;2023-01-13T07:08:09;7.50;99.90
29003;DHT22;16102;57.138;-2.118;2023-01-13T07:10:37;7.50;99.90
29003;DHT22;16102;57.138;-2.118;2023-01-13T07:13:05;7.50;99.90
29003;DHT22;16102;57.138;-2.118;2023-01-13T07:16:01;7.50;99.90
29003;DHT22;16102;57.138;-2.118;2023-01-13T07:18:29;7.50;99.90
29003;DHT22;16102;57.138;-2.118;2023-01-13T07:21:08;7.50;99.90
29003;DHT22;16102;57.138;-2.118;2023-01-13T07:23:40;7.50;99.90
29003;DHT22;16102;57.138;-2.118;2023-01-13T07:26:08;7.50;99.90
29003;DHT22;16102;57.138;-2.118;2023-01-13T07:28:35;7.40;99.90
29003;DHT22;16102;57.138;-2.118;2023-01-13T07:31:03;7.40;99.90
29003;DHT22;16102;57.138;-2.118;2023-01-13T07:33:30;7.30;99.90
29003;DHT22;16102;57.138;-2.118;2023-01-13T07:36:01;7.30;99.90
29003;DHT22;16102;57.138;-2.118;2023-01-13T07:38:28;7.20;99.90
29003;DHT22;16102;57.138;-2.118;2023-01-13T07:40:56;7.10;99.90
29003;DHT22;16102;57.138;-2.118;2023-01-13T07:43:23;7.00;99.90
29003;DHT22;16102;57.138;-2.118;2023-01-13T07:46:04;6.90;99.90
29003;DHT22;16102;57.138;-2.118;2023-01-13T07:48:33;6.90;99.90
29003;DHT22;16102;57.138;-2.118;2023-01-13T07:51:05;6.90;99.90
29003;DHT22;16102;57.138;-2.118;2023-01-13T07:53:33;6.90;99.90
29003;DHT22;16102;57.138;-2.118;2023-01-13T07:56:02;6.90;99.90
29003;DHT22;16102;57.138;-2.118;2023-01-13T07:58:29;7.00;99.90
29003;DHT22;16102;57.138;-2.118;2023-01-13T08:00:56;7.00;99.90
29003;DHT22;16102;57.138;-2.118;2023-01-13T08:03:24;7.00;99.90
29003;DHT22;16102;57.138;-2.118;2023-01-13T08:05:52;7.00;99.90
29003;DHT22;16102;57.138;-2.118;2023-01-13T08:08:19;7.00;99.90
29003;DHT22;16102;57.138;-2.118;2023-01-13T08:10:46;7.00;99.90
29003;DHT22;16102;57.138;-2.118;2023-01-13T08:13:17;7.00;99.90
29003;DHT22;16102;57.138;-2.118;2023-01-13T08:15:51;7.00;99.90
29003;DHT22;16102;57.138;-2.118;2023-01-13T08:18:19;7.00;99.90
29003;DHT22;16102;57.138;-2.118;2023-01-13T08:20:48;7.00;99.90
29003;DHT22;16102;57.138;-2.118;2023-01-13T08:23:22;7.00;99.90
29003;DHT22;16102;57.138;-2.118;2023-01-13T08:25:49;7.00;99.90
29003;DHT22;16102;57.138;-2.118;2023-01-13T08:28:16;6.90;99.90
29003;DHT22;16102;57.138;-2.118;2023-01-13T08:30:43;6.90;99.90
29003;DHT22;16102;57.138;-2.118;2023-01-13T08:33:11;6.90;99.90
29003;DHT22;16102;57.138;-2.118;2023-01-13T08:35:39;7.00;99.90
29003;DHT22;16102;57.138;-2.118;2023-01-13T08:38:07;7.00;99.90
29003;DHT22;16102;57.138;-2.118;2023-01-13T08:40:35;7.00;99.90
29003;DHT22;16102;57.138;-2.118;2023-01-13T08:43:02;6.90;99.90
29003;DHT22;16102;57.138;-2.118;2023-01-13T08:45:29;6.90;99.90
29003;DHT22;16102;57.138;-2.118;2023-01-13T08:47:56;6.90;99.90
29003;DHT22;16102;57.138;-2.118;2023-01-13T08:50:23;6.90;99.90
29003;DHT22;16102;57.138;-2.118;2023-01-13T08:52:50;6.90;99.90
29003;DHT22;16102;57.138;-2.118;2023-01-13T08:55:18;6.90;99.90
29003;DHT22;16102;57.138;-2.118;2023-01-13T08:57:45;6.90;99.90
29003;DHT22;16102;57.138;-2.118;2023-01-13T09:00:13;6.90;99.90
29003;DHT22;16102;57.138;-2.118;2023-01-13T09:02:41;6.90;99.90
29003;DHT22;16102;57.138;-2.118;2023-01-13T09:05:09;6.80;99.90
29003;DHT22;16102;57.138;-2.118;2023-01-13T09:07:37;6.80;99.90
29003;DHT22;16102;57.138;-2.118;2023-01-13T09:10:06;6.80;99.90
29003;DHT22;16102;57.138;-2.118;2023-01-13T09:12:33;6.80;99.90
29003;DHT22;16102;57.138;-2.118;2023-01-13T09:15:19;6.80;99.90
29003;DHT22;16102;57.138;-2.118;2023-01-13T09:17:47;6.80;99.90
29003;DHT22;16102;57.138;-2.118;2023-01-13T09:20:14;6.80;99.90
29003;DHT22;16102;57.138;-2.118;2023-01-13T09:22:41;6.80;99.90
29003;DHT22;16102;57.138;-2.118;2023-01-13T09:25:09;6.80;99.90
29003;DHT22;16102;57.138;-2.118;2023-01-13T09:27:36;6.80;99.90
29003;DHT22;16102;57.138;-2.118;2023-01-13T09:30:04;6.80;99.90
29003;DHT22;16102;57.138;-2.118;2023-01-13T09:32:31;6.80;99.90
29003;DHT22;16102;57.138;-2.118;2023-01-13T09:34:59;6.80;99.90
29003;DHT22;16102;57.138;-2.118;2023-01-13T09:37:31;6.70;99.90
29003;DHT22;16102;57.138;-2.118;2023-01-13T09:40:01;6.80;99.90
29003;DHT22;16102;57.138;-2.118;2023-01-13T09:42:33;6.80;99.90
29003;DHT22;16102;57.138;-2.118;2023-01-13T09:45:26;6.70;99.90
29003;DHT22;16102;57.138;-2.118;2023-01-13T09:48:19;6.70;99.90
29003;DHT22;16102;57.138;-2.118;2023-01-13T09:51:10;6.70;99.90
29003;DHT22;16102;57.138;-2.118;2023-01-13T09:53:49;6.70;99.90
29003;DHT22;16102;57.138;-2.118;2023-01-13T09:56:25;6.70;99.90
29003;DHT22;16102;57.138;-2.118;2023-01-13T09:58:52;6.70;99.90
29003;DHT22;16102;57.138;-2.118;2023-01-13T10:04:03;6.70;99.90
29003;DHT22;16102;57.138;-2.118;2023-01-13T10:06:38;6.70;99.90
29003;DHT22;16102;57.138;-2.118;2023-01-13T10:09:25;6.70;99.90
29003;DHT22;16102;57.138;-2.118;2023-01-13T10:11:56;6.70;99.90
29003;DHT22;16102;57.138;-2.118;2023-01-13T10:14:54;6.70;99.90
29003;DHT22;16102;57.138;-2.118;2023-01-13T10:17:29;6.60;99.90
29003;DHT22;16102;57.138;-2.118;2023-01-13T10:20:13;6.70;99.90
29003;DHT22;16102;57.138;-2.118;2023-01-13T10:28:21;6.70;99.90
29003;DHT22;16102;57.138;-2.118;2023-01-13T10:30:49;6.70;99.90
29003;DHT22;16102;57.138;-2.118;2023-01-13T10:33:20;6.70;99.90
29003;DHT22;16102;57.138;-2.118;2023-01-13T10:36:13;6.70;99.90
29003;DHT22;16102;57.138;-2.118;2023-01-13T10:38:46;6.80;99.90
29003;DHT22;16102;57.138;-2.118;2023-01-13T10:46:19;6.80;99.90
29003;DHT22;16102;57.138;-2.118;2023-01-13T10:48:54;6.80;99.90
29003;DHT22;16102;57.138;-2.118;2023-01-13T10:56:27;6.80;99.90
29003;DHT22;16102;57.138;-2.118;2023-01-13T11:02:13;6.90;99.90
29003;DHT22;16102;57.138;-2.118;2023-01-13T11:07:38;6.90;99.90
29003;DHT22;16102;57.138;-2.118;2023-01-13T11:12:50;6.90;99.90
29003;DHT22;16102;57.138;-2.118;2023-01-13T11:15:30;6.90;99.90
29003;DHT22;16102;57.138;-2.118;2023-01-13T11:18:07;7.00;99.90
29003;DHT22;16102;57.138;-2.118;2023-01-13T11:20:36;6.90;99.90
29003;DHT22;16102;57.138;-2.118;2023-01-13T11:23:19;7.00;99.90
29003;DHT22;16102;57.138;-2.118;2023-01-13T11:25:52;7.00;99.90
29003;DHT22;16102;57.138;-2.118;2023-01-13T11:28:48;7.00;99.90
29003;DHT22;16102;57.138;-2.118;2023-01-13T11:34:21;7.00;99.90
29003;DHT22;16102;57.138;-2.118;2023-01-13T11:36:57;7.10;99.90
29003;DHT22;16102;57.138;-2.118;2023-01-13T11:39:47;7.10;99.90
29003;DHT22;16102;57.138;-2.118;2023-01-13T11:42:31;7.10;99.90
29003;DHT22;16102;57.138;-2.118;2023-01-13T11:45:45;7.10;99.90
29003;DHT22;16102;57.138;-2.118;2023-01-13T11:48:17;7.20;99.90
29003;DHT22;16102;57.138;-2.118;2023-01-13T11:51:01;7.10;99.90
29003;DHT22;16102;57.138;-2.118;2023-01-13T12:10:43;7.20;99.90
29003;DHT22;16102;57.138;-2.118;2023-01-13T12:18:42;7.30;99.90
29003;DHT22;16102;57.138;-2.118;2023-01-13T12:21:29;7.30;99.90
29003;DHT22;16102;57.138;-2.118;2023-01-13T12:27:00;7.20;99.90
29003;DHT22;16102;57.138;-2.118;2023-01-13T12:29:35;7.30;99.90
29003;DHT22;16102;57.138;-2.118;2023-01-13T12:32:10;7.30;99.90
29003;DHT22;16102;57.138;-2.118;2023-01-13T12:34:59;7.30;99.90
29003;DHT22;16102;57.138;-2.118;2023-01-13T12:37:55;7.30;99.90
29003;DHT22;16102;57.138;-2.118;2023-01-13T12:43:22;7.30;99.90
29003;DHT22;16102;57.138;-2.118;2023-01-13T12:51:25;7.30;99.90
29003;DHT22;16102;57.138;-2.118;2023-01-13T12:53:56;7.30;99.90
29003;DHT22;16102;57.138;-2.118;2023-01-13T12:56:39;7.30;69.20
29003;DHT22;16102;57.138;-2.118;2023-01-13T12:59:32;7.30;1.00
29003;DHT22;16102;57.138;-2.118;2023-01-13T13:04:47;7.40;1.00
29003;DHT22;16102;57.138;-2.118;2023-01-13T13:07:24;7.40;1.00
29003;DHT22;16102;57.138;-2.118;2023-01-13T13:09:57;7.40;1.00
29003;DHT22;16102;57.138;-2.118;2023-01-13T13:15:27;7.40;99.90
29003;DHT22;16102;57.138;-2.118;2023-01-13T13:20:56;7.40;1.00
29003;DHT22;16102;57.138;-2.118;2023-01-13T13:26:26;7.50;99.90
29003;DHT22;16102;57.138;-2.118;2023-01-13T13:29:11;7.40;99.90
29003;DHT22;16102;57.138;-2.118;2023-01-13T13:34:35;7.30;99.90
29003;DHT22;16102;57.138;-2.118;2023-01-13T13:39:42;7.50;1.00
29003;DHT22;16102;57.138;-2.118;2023-01-13T13:42:36;7.70;99.90
29003;DHT22;16102;57.138;-2.118;2023-01-13T13:45:24;7.60;1.00
29003;DHT22;16102;57.138;-2.118;2023-01-13T13:48:28;7.70;1.00
29003;DHT22;16102;57.138;-2.118;2023-01-13T13:51:01;8.10;99.90
29003;DHT22;16102;57.138;-2.118;2023-01-13T13:53:37;8.50;1.00
29003;DHT22;16102;57.138;-2.118;2023-01-13T13:56:17;8.40;99.90
29003;DHT22;16102;57.138;-2.118;2023-01-13T13:58:47;8.10;99.90
29003;DHT22;16102;57.138;-2.118;2023-01-13T14:01:27;7.80;99.90
29003;DHT22;16102;57.138;-2.118;2023-01-13T14:04:22;7.60;1.00
29003;DHT22;16102;57.138;-2.118;2023-01-13T14:06:57;7.50;99.90
29003;DHT22;16102;57.138;-2.118;2023-01-13T14:09:26;7.50;99.90
29003;DHT22;16102;57.138;-2.118;2023-01-13T14:12:02;7.50;99.90
29003;DHT22;16102;57.138;-2.118;2023-01-13T14:14:29;7.40;1.00
29003;DHT22;16102;57.138;-2.118;2023-01-13T14:16:57;7.40;1.00
29003;DHT22;16102;57.138;-2.118;2023-01-13T14:19:33;7.30;1.00
29003;DHT22;16102;57.138;-2.118;2023-01-13T14:22:02;7.30;41.60
29003;DHT22;16102;57.138;-2.118;2023-01-13T14:24:31;7.30;75.30
29003;DHT22;16102;57.138;-2.118;2023-01-13T14:27:18;7.30;57.60
29003;DHT22;16102;57.138;-2.118;2023-01-13T14:29:45;7.30;1.00
29003;DHT22;16102;57.138;-2.118;2023-01-13T14:32:17;7.20;1.00
29003;DHT22;16102;57.138;-2.118;2023-01-13T14:34:45;7.20;1.00
29003;DHT22;16102;57.138;-2.118;2023-01-13T14:39:50;7.20;99.90
29003;DHT22;16102;57.138;-2.118;2023-01-13T14:42:18;7.20;99.90
29003;DHT22;16102;57.138;-2.118;2023-01-13T14:44:48;7.20;99.90
29003;DHT22;16102;57.138;-2.118;2023-01-13T14:47:21;7.20;99.90
29003;DHT22;16102;57.138;-2.118;2023-01-13T14:52:22;7.10;1.00
29003;DHT22;16102;57.138;-2.118;2023-01-13T14:57:32;7.10;1.00
29003;DHT22;16102;57.138;-2.118;2023-01-13T15:10:49;7.00;15.30
29003;DHT22;16102;57.138;-2.118;2023-01-13T15:13:28;7.00;97.30
29003;DHT22;16102;57.138;-2.118;2023-01-13T15:16:01;7.00;1.00
29003;DHT22;16102;57.138;-2.118;2023-01-13T15:18:29;7.00;1.00
29003;DHT22;16102;57.138;-2.118;2023-01-13T15:20:56;6.90;1.00
29003;DHT22;16102;57.138;-2.118;2023-01-13T15:23:23;6.90;1.00
29003;DHT22;16102;57.138;-2.118;2023-01-13T15:25:50;6.90;1.00
29003;DHT22;16102;57.138;-2.118;2023-01-13T15:28:23;6.90;99.90
29003;DHT22;16102;57.138;-2.118;2023-01-13T15:30:52;6.90;99.90
29003;DHT22;16102;57.138;-2.118;2023-01-13T15:33:21;6.80;1.00
29003;DHT22;16102;57.138;-2.118;2023-01-13T15:35:50;6.80;1.00
29003;DHT22;16102;57.138;-2.118;2023-01-13T15:38:22;6.70;15.90
29003;DHT22;16102;57.138;-2.118;2023-01-13T15:40:51;6.70;25.30
29003;DHT22;16102;57.138;-2.118;2023-01-13T15:43:22;6.60;99.90
29003;DHT22;16102;57.138;-2.118;2023-01-13T15:46:17;6.60;99.90
29003;DHT22;16102;57.138;-2.118;2023-01-13T15:48:45;6.50;99.90
29003;DHT22;16102;57.138;-2.118;2023-01-13T15:51:18;6.50;99.90
29003;DHT22;16102;57.138;-2.118;2023-01-13T15:53:47;6.40;99.90
29003;DHT22;16102;57.138;-2.118;2023-01-13T15:56:21;6.50;14.40
29003;DHT22;16102;57.138;-2.118;2023-01-13T15:58:49;6.40;62.00
29003;DHT22;16102;57.138;-2.118;2023-01-13T16:01:16;6.40;99.90
29003;DHT22;16102;57.138;-2.118;2023-01-13T16:03:43;6.30;99.90
29003;DHT22;16102;57.138;-2.118;2023-01-13T16:06:15;6.20;99.90
29003;DHT22;16102;57.138;-2.118;2023-01-13T16:08:44;6.10;1.00
29003;DHT22;16102;57.138;-2.118;2023-01-13T16:11:11;6.10;34.40
29003;DHT22;16102;57.138;-2.118;2023-01-13T16:13:38;6.10;99.90
29003;DHT22;16102;57.138;-2.118;2023-01-13T16:16:21;6.00;99.90
29003;DHT22;16102;57.138;-2.118;2023-01-13T16:18:49;6.00;1.00
29003;DHT22;16102;57.138;-2.118;2023-01-13T16:21:18;5.90;43.30
29003;DHT22;16102;57.138;-2.118;2023-01-13T16:23:47;5.90;99.90
29003;DHT22;16102;57.138;-2.118;2023-01-13T16:26:21;5.80;1.00
29003;DHT22;16102;57.138;-2.118;2023-01-13T16:28:50;5.70;99.90
29003;DHT22;16102;57.138;-2.118;2023-01-13T16:31:26;5.70;1.00
29003;DHT22;16102;57.138;-2.118;2023-01-13T16:33:59;5.70;10.10
29003;DHT22;16102;57.138;-2.118;2023-01-13T16:36:27;5.70;99.90
29003;DHT22;16102;57.138;-2.118;2023-01-13T16:38:55;5.70;99.90
29003;DHT22;16102;57.138;-2.118;2023-01-13T16:41:23;5.60;1.00
29003;DHT22;16102;57.138;-2.118;2023-01-13T16:43:53;5.70;1.00
29003;DHT22;16102;57.138;-2.118;2023-01-13T16:46:28;5.60;23.20
29003;DHT22;16102;57.138;-2.118;2023-01-13T16:49:00;5.60;99.90
29003;DHT22;16102;57.138;-2.118;2023-01-13T16:51:27;5.60;99.90
29003;DHT22;16102;57.138;-2.118;2023-01-13T16:53:54;5.50;99.90
29003;DHT22;16102;57.138;-2.118;2023-01-13T16:58:54;5.50;1.00
29003;DHT22;16102;57.138;-2.118;2023-01-13T17:01:27;5.50;1.00
29003;DHT22;16102;57.138;-2.118;2023-01-13T17:03:55;5.50;1.00
29003;DHT22;16102;57.138;-2.118;2023-01-13T17:06:40;5.40;1.00
29003;DHT22;16102;57.138;-2.118;2023-01-13T17:09:15;5.40;1.00
29003;DHT22;16102;57.138;-2.118;2023-01-13T17:11:43;5.40;1.00
29003;DHT22;16102;57.138;-2.118;2023-01-13T17:14:10;5.40;1.00
29003;DHT22;16102;57.138;-2.118;2023-01-13T17:16:45;5.40;19.30
29003;DHT22;16102;57.138;-2.118;2023-01-13T17:19:12;5.30;99.90
29003;DHT22;16102;57.138;-2.118;2023-01-13T17:21:40;5.30;99.90
29003;DHT22;16102;57.138;-2.118;2023-01-13T17:24:07;5.30;99.90
29003;DHT22;16102;57.138;-2.118;2023-01-13T17:26:40;5.30;99.90
29003;DHT22;16102;57.138;-2.118;2023-01-13T17:29:16;5.30;99.90
29003;DHT22;16102;57.138;-2.118;2023-01-13T17:31:44;5.30;99.90
29003;DHT22;16102;57.138;-2.118;2023-01-13T17:34:12;5.30;99.90
29003;DHT22;16102;57.138;-2.118;2023-01-13T17:36:39;5.30;75.60
29003;DHT22;16102;57.138;-2.118;2023-01-13T17:39:22;5.20;1.00
29003;DHT22;16102;57.138;-2.118;2023-01-13T17:41:51;5.20;1.00
29003;DHT22;16102;57.138;-2.118;2023-01-13T17:44:19;5.20;1.00
29003;DHT22;16102;57.138;-2.118;2023-01-13T17:46:47;5.10;1.00
29003;DHT22;16102;57.138;-2.118;2023-01-13T17:49:17;5.10;1.00
29003;DHT22;16102;57.138;-2.118;2023-01-13T17:51:44;5.10;1.00
29003;DHT22;16102;57.138;-2.118;2023-01-13T17:54:17;5.10;1.00
29003;DHT22;16102;57.138;-2.118;2023-01-13T17:56:44;5.10;1.00
29003;DHT22;16102;57.138;-2.118;2023-01-13T17:59:13;5.00;1.00
29003;DHT22;16102;57.138;-2.118;2023-01-13T18:01:40;4.90;1.00
29003;DHT22;16102;57.138;-2.118;2023-01-13T18:04:14;4.90;1.00
29003;DHT22;16102;57.138;-2.118;2023-01-13T18:06:41;4.90;99.90
29003;DHT22;16102;57.138;-2.118;2023-01-13T18:09:08;4.80;99.90
29003;DHT22;16102;57.138;-2.118;2023-01-13T18:11:35;4.80;99.90
29003;DHT22;16102;57.138;-2.118;2023-01-13T18:14:02;4.80;99.90
29003;DHT22;16102;57.138;-2.118;2023-01-13T18:16:30;4.70;99.90
29003;DHT22;16102;57.138;-2.118;2023-01-13T18:18:58;4.70;99.90